MAPA DE AEROPUERTO

INFORMACIÓN METAR y TAF


Deprecated: The each() function is deprecated. This message will be suppressed on further calls in /home/customer/www/clickair-va.com/public_html/VAM/vam/helpers/get_metar.php on line 20
METAR FOR LTAI
ADDS - METARS form results

(0304 UTC 25 May 2022)
Data provider http://aviationweather.gov/metar/data/
 
METAR text: LTAI 250250Z 36002KT CAVOK 18/12 Q1013 NOSIG RMK RWY18C 00000KT RWY36R 32004KT RWY18L 29003KT
Conditions at: LTAI (ANTALYA (CIV/MIL, TR) observed 0250 UTC 25 May 2022
Temperature: 18.0°C (64°F)
Dewpoint: 12.0°C (54°F) [RH = 68%]
Pressure (altimeter): 29.91 inches Hg (1013.0 mb)
Winds: from the N (360 degrees) at 2 MPH (2 knots; 1.0 m/s)
Visibility: 6 or more miles (10+ km)
Ceiling: ceiling and visibility are OK
Clouds: unknown
Weather: no significant weather observed at this time

METAR text: LTAI 250220Z 32002KT CAVOK 19/12 Q1013 NOSIG RMK RWY18C 33003KT RWY36R VRB02KT RWY18L 32003KT
Conditions at: LTAI (ANTALYA (CIV/MIL, TR) observed 0220 UTC 25 May 2022
Temperature: 19.0°C (66°F)
Dewpoint: 12.0°C (54°F) [RH = 64%]
Pressure (altimeter): 29.91 inches Hg (1013.0 mb)
Winds: from the NW (320 degrees) at 2 MPH (2 knots; 1.0 m/s)
Visibility: 6 or more miles (10+ km)
Ceiling: ceiling and visibility are OK
Clouds: unknown
Weather: no significant weather observed at this time

Forecast for: LTAI (ANTALYA (CIV/MIL, TR)
Text: TAF LTAI 242240Z 2500/2524 34006KT CAVOK
Forecast period: 0000 to 0700 UTC 25 May 2022
Forecast type: FROM: standard forecast or significant change
Winds: from the NNW (340 degrees) at 7 MPH (6 knots; 3.1 m/s)
Visibility: 6 or more miles (10+ km)
Ceiling: unknown
Clouds: missing
Weather: NSW  (no significant weather)
Text: BECMG 2507/2510 15010KT SCT030
Forecast period: 0700 to 1700 UTC 25 May 2022
Forecast type: BECOMING: Conditions expected to become as follows by 1000 UTC 25 May 2022
Winds: from the SSE (150 degrees) at 12 MPH (10 knots; 5.1 m/s)
Visibility: 6 or more miles (10+ km)
Ceiling: at least 12,000 feet AGL
Clouds: scattered clouds at 3000 feet AGL
Weather: NSW  (no significant weather)
Text: TEMPO 2513/2517 FEW020CB SCT030
Forecast period: 1300 to 1700 UTC 25 May 2022
Forecast type: TEMPORARY: The following changes expected for less than half the time period
Visibility: missing
Ceiling: at least 12,000 feet AGL
Clouds: few clouds at 2000 feet AGL
scattered clouds at 3000 feet AGL
Weather: no significant weather forecast for this period
Text: BECMG 2517/2520 34006KT CAVOK
Forecast period: 1700 UTC 25 May 2022 to 0000 UTC 26 May 2022
Forecast type: BECOMING: Conditions expected to become as follows by 2000 UTC 25 May 2022
Winds: from the NNW (340 degrees) at 7 MPH (6 knots; 3.1 m/s)
Visibility: 6 or more miles (10+ km)
Ceiling: unknown
Clouds: missing
Weather: NSW  (no significant weather)